Orbital elements of METEOR 2-8 DEB
| Launched | 24 March 1982 |
| Flight ended | – |
| Launch site | Plesetsk Missile and Space Complex, Russia |
| Owner | Commonwealth of Independent States (former USSR) |
| NORAD ID | 38289 |
| Date fetched |
Epoch osculation |
Inc. [°] |
Ecc. | RA asc node [hr] |
Arg Peri. [°] |
Mean anom [°] |
Mean motion [rev/day] |
Abs. mag |
| Date fetched |
Epoch osculation |
Inc. [°] |
Ecc. | RA asc node [hr] |
Arg Peri. [°] |
Mean anom [°] |
Mean motion [rev/day] |
Abs. mag |
| 2026 May 01 17:56 | 2026 Apr 27 14:26:31 | 82.5233 | 0.00201 | 16.3862 | 239.3365 | 120.5842 | 14.25414 | – |
| 2026 Apr 30 17:56 | 2026 Apr 27 14:26:31 | 82.5233 | 0.00201 | 16.3862 | 239.3365 | 120.5842 | 14.25414 | – |
| 2026 Apr 29 17:57 | 2026 Apr 22 14:49:35 | 82.5231 | 0.00199 | 16.6697 | 255.2413 | 120.5842 | 14.25414 | – |
| 2026 Apr 28 17:56 | 2026 Apr 22 14:49:35 | 82.5231 | 0.00199 | 16.6697 | 255.2413 | 120.5842 | 14.25414 | – |
| 2026 Apr 27 17:58 | 2026 Apr 22 14:49:35 | 82.5231 | 0.00199 | 16.6697 | 255.2413 | 120.5842 | 14.25414 | – |
| 2026 Apr 26 17:58 | 2026 Apr 22 14:49:35 | 82.5231 | 0.00199 | 16.6697 | 255.2413 | 120.5842 | 14.25414 | – |
| 2026 Apr 25 17:58 | 2026 Apr 22 14:49:35 | 82.5231 | 0.00199 | 16.6697 | 255.2413 | 120.5842 | 14.25414 | – |
| 2026 Apr 24 17:59 | 2026 Apr 22 14:49:35 | 82.5231 | 0.00199 | 16.6697 | 255.2413 | 120.5842 | 14.25414 | – |
| 2026 Apr 23 17:57 | 2026 Apr 19 02:35:20 | 82.5225 | 0.00201 | 16.8694 | 266.2648 | 120.5842 | 14.25414 | – |
| 2026 Apr 22 17:57 | 2026 Apr 19 02:35:20 | 82.5225 | 0.00201 | 16.8694 | 266.2648 | 120.5842 | 14.25414 | – |
| 2026 Apr 21 17:57 | 2026 Apr 19 02:35:20 | 82.5225 | 0.00201 | 16.8694 | 266.2648 | 120.5842 | 14.25414 | – |
| 2026 Apr 20 17:57 | 2026 Apr 19 02:35:20 | 82.5225 | 0.00201 | 16.8694 | 266.2648 | 120.5842 | 14.25414 | – |
| 2026 Apr 19 17:58 | 2026 Apr 19 02:35:20 | 82.5225 | 0.00201 | 16.8694 | 266.2648 | 120.5842 | 14.25414 | – |
| 2026 Apr 18 17:56 | 2026 Apr 13 03:23:00 | 82.5216 | 0.00201 | 17.2088 | 285.8251 | 120.5842 | 14.25414 | – |
| 2026 Apr 16 17:57 | 2026 Apr 13 03:23:00 | 82.5216 | 0.00201 | 17.2088 | 285.8251 | 120.5842 | 14.25414 | – |
| 2026 Apr 14 17:57 | 2026 Apr 13 03:23:00 | 82.5216 | 0.00201 | 17.2088 | 285.8251 | 120.5842 | 14.25414 | – |
| 2026 Apr 13 17:57 | 2026 Apr 13 03:23:00 | 82.5216 | 0.00201 | 17.2088 | 285.8251 | 120.5842 | 14.25414 | – |
| 2026 Apr 12 17:57 | 2026 Apr 08 03:45:46 | 82.5226 | 0.00202 | 17.4924 | 300.9437 | 120.5842 | 14.25414 | – |
| 2026 Apr 11 17:57 | 2026 Apr 08 03:45:46 | 82.5226 | 0.00202 | 17.4924 | 300.9437 | 120.5842 | 14.25414 | – |
| 2026 Apr 10 17:58 | 2026 Apr 08 03:45:46 | 82.5226 | 0.00202 | 17.4924 | 300.9437 | 120.5842 | 14.25414 | – |
| 2026 Apr 09 18:01 | 2026 Apr 08 03:45:46 | 82.5226 | 0.00202 | 17.4924 | 300.9437 | 120.5842 | 14.25414 | – |
| 2026 Apr 08 17:57 | 2026 Apr 08 03:45:46 | 82.5226 | 0.00202 | 17.4924 | 300.9437 | 120.5842 | 14.25414 | – |
| 2026 Apr 07 17:57 | 2026 Mar 27 18:48:45 | 82.5226 | 0.00208 | 18.1394 | 337.3259 | 120.5842 | 14.25414 | – |
| 2026 Apr 06 17:57 | 2026 Mar 27 18:48:45 | 82.5226 | 0.00208 | 18.1394 | 337.3259 | 120.5842 | 14.25414 | – |
| 2026 Apr 05 17:56 | 2026 Mar 27 18:48:45 | 82.5226 | 0.00208 | 18.1394 | 337.3259 | 120.5842 | 14.25414 | – |
| 2026 Apr 04 17:57 | 2026 Mar 27 18:48:45 | 82.5226 | 0.00208 | 18.1394 | 337.3259 | 120.5842 | 14.25414 | – |